Time;durP1;ratioP1;P1;durP2;ratioP2;P2;SDS_P1;SDS_P2;PMS_P1;PMS_P2;Temp;Humidity;BMP_temperature;BMP_pressure;BME280_temperature;BME280_humidity;BME280_pressure;Samples;Min_cycle;Max_cycle;Signal;HPM_P1;HPM_P2
2022/04/17 00:02:02;;;;;;;;;5.50;4.00;;;;;15.69;42.90;102360.94;5003188;28;45469;-59
2022/04/17 00:04:28;;;;;;;;;5.00;5.00;;;;;15.68;43.10;102353.06;5003235;28;45390;-58
2022/04/17 00:06:53;;;;;;;;;3.50;3.50;;;;;15.66;42.78;102357.63;5003131;28;45310;-58
2022/04/17 00:09:19;;;;;;;;;5.75;3.25;;;;;15.64;43.11;102352.38;5003227;28;45270;-58
2022/04/17 00:11:45;;;;;;;;;4.00;3.25;;;;;15.61;42.92;102347.22;5003056;28;45379;-59
2022/04/17 00:14:11;;;;;;;;;6.50;5.25;;;;;15.58;42.97;102348.22;5003187;28;46091;-58
2022/04/17 00:16:40;;;;;;;;;5.75;4.50;;;;;15.56;42.93;102341.25;5002699;28;45134;-59
2022/04/17 00:19:08;;;;;;;;;4.00;4.00;;;;;15.51;43.26;102346.84;5003214;28;45345;-59
2022/04/17 00:21:33;;;;;;;;;6.50;4.50;;;;;15.47;43.04;102336.47;5003274;28;45496;-59
2022/04/17 00:23:59;;;;;;;;;6.50;5.00;;;;;15.43;43.19;102333.13;5002884;28;46019;-59
2022/04/17 00:26:25;;;;;;;;;5.00;5.00;;;;;15.39;42.77;102331.56;5002880;28;45273;-59
2022/04/17 00:28:50;;;;;;;;;6.50;5.00;;;;;15.35;43.04;102327.38;5003119;28;45406;-59
2022/04/17 00:31:16;;;;;;;;;7.25;5.50;;;;;15.30;43.49;102332.91;5002844;28;45345;-58
2022/04/17 00:33:42;;;;;;;;;6.25;5.25;;;;;15.28;43.01;102326.84;5002884;28;45247;-59
2022/04/17 00:36:07;;;;;;;;;5.25;4.75;;;;;15.26;42.92;102331.38;5002742;28;45163;-59
2022/04/17 00:38:33;;;;;;;;;10.25;7.75;;;;;15.24;42.90;102329.72;5002678;28;45175;-59
2022/04/17 00:40:58;;;;;;;;;10.25;7.25;;;;;15.21;43.41;102327.25;5002863;28;45222;-59
2022/04/17 00:43:26;;;;;;;;;5.50;5.50;;;;;15.19;43.32;102329.13;5002625;28;46320;-58
2022/04/17 00:45:52;;;;;;;;;8.25;5.50;;;;;15.14;43.76;102328.50;5002462;28;45301;-58
2022/04/17 00:48:19;;;;;;;;;9.50;6.75;;;;;15.10;43.12;102325.19;5002596;28;45271;-59
2022/04/17 00:50:46;;;;;;;;;8.25;6.50;;;;;15.08;43.28;102327.88;5002633;28;46277;-59
2022/04/17 00:53:12;;;;;;;;;9.25;8.25;;;;;15.07;42.95;102328.81;5002623;28;45233;-59
2022/04/17 00:55:40;;;;;;;;;4.50;4.25;;;;;15.07;43.00;102327.97;5002425;28;45303;-59
2022/04/17 00:58:05;;;;;;;;;6.50;6.50;;;;;15.06;43.15;102323.59;5002762;28;45349;-59
2022/04/17 01:00:33;;;;;;;;;9.00;6.75;;;;;15.03;42.98;102319.31;5002345;28;45475;-59
2022/04/17 01:03:01;;;;;;;;;8.00;7.00;;;;;14.98;43.45;102318.69;5002285;28;46222;-58
2022/04/17 01:05:26;;;;;;;;;7.75;7.00;;;;;14.92;43.13;102321.66;5002210;28;45424;-58
2022/04/17 01:07:53;;;;;;;;;10.00;9.75;;;;;14.85;42.70;102322.94;5002437;28;45325;-59
2022/04/17 01:10:19;;;;;;;;;10.00;8.75;;;;;14.83;43.18;102316.00;5002259;28;45611;-59
2022/04/17 01:12:45;;;;;;;;;6.00;6.00;;;;;14.78;43.38;102309.16;5002260;28;46208;-59
2022/04/17 01:15:11;;;;;;;;;7.75;6.00;;;;;14.77;43.42;102317.16;5002066;28;45268;-59
2022/04/17 01:17:37;;;;;;;;;10.00;6.25;;;;;14.74;43.41;102309.38;5002035;28;45269;-59
2022/04/17 01:20:04;;;;;;;;;10.25;7.00;;;;;14.71;43.34;102305.09;5002279;28;45238;-59
2022/04/17 01:22:29;;;;;;;;;7.00;6.00;;;;;14.68;43.44;102305.22;5001837;28;46423;-58
2022/04/17 01:27:40;;;;;;;;;7.75;7.25;;;;;14.62;43.40;102302.06;5002150;28;45381;-59
2022/04/17 01:30:06;;;;;;;;;7.25;7.00;;;;;14.58;43.43;102295.19;5002366;28;45267;-59
2022/04/17 01:32:32;;;;;;;;;7.25;6.00;;;;;14.53;43.80;102290.09;5001620;28;45263;-59
2022/04/17 01:34:57;;;;;;;;;6.00;6.00;;;;;14.47;43.71;102293.94;5002115;28;45349;-59
2022/04/17 01:37:23;;;;;;;;;6.75;5.00;;;;;14.43;43.87;102291.47;4984043;28;45270;-59
2022/04/17 01:39:49;;;;;;;;;11.75;6.25;;;;;14.40;43.52;102289.84;5002004;28;45256;-58
2022/04/17 01:42:16;;;;;;;;;4.75;4.75;;;;;14.36;43.87;102284.78;5001625;28;45437;-58
2022/04/17 01:44:42;;;;;;;;;6.00;5.00;;;;;14.32;43.66;102284.06;5001756;28;45427;-58
2022/04/17 01:47:08;;;;;;;;;7.25;6.00;;;;;14.31;43.75;102287.66;5001708;28;45262;-59
2022/04/17 01:49:34;;;;;;;;;6.25;6.25;;;;;14.30;44.04;102283.31;5001853;28;45618;-58
2022/04/17 01:52:00;;;;;;;;;5.00;5.00;;;;;14.24;44.18;102284.47;5001408;28;45426;-58
2022/04/17 01:54:27;;;;;;;;;9.50;7.50;;;;;14.22;43.94;102290.78;5001214;28;45362;-58
2022/04/17 01:56:54;;;;;;;;;9.25;5.00;;;;;14.17;44.04;102283.03;5001828;28;45306;-59
2022/04/17 01:59:21;;;;;;;;;8.50;7.25;;;;;14.13;43.81;102292.06;5001809;28;45178;-59
2022/04/17 02:01:48;;;;;;;;;4.00;4.00;;;;;14.12;44.18;102289.50;5001170;28;45277;-59
2022/04/17 02:04:14;;;;;;;;;6.00;6.00;;;;;14.09;43.52;102289.66;5001617;28;45313;-59
2022/04/17 02:06:41;;;;;;;;;5.50;3.00;;;;;14.08;43.77;102287.94;5001510;28;45358;-58
2022/04/17 02:09:08;;;;;;;;;6.00;6.00;;;;;14.09;43.65;102285.22;5001402;28;45445;-59
2022/04/17 02:11:34;;;;;;;;;4.75;4.75;;;;;14.04;43.78;102286.38;5001152;28;45358;-59
2022/04/17 02:14:00;;;;;;;;;4.00;3.75;;;;;14.00;43.72;102276.88;5001439;28;45574;-59
2022/04/17 02:16:26;;;;;;;;;5.75;4.00;;;;;13.98;43.57;102279.56;5001199;28;45357;-59
2022/04/17 02:18:52;;;;;;;;;6.25;5.00;;;;;13.97;43.61;102277.84;5001324;28;45452;-59
2022/04/17 02:21:19;;;;;;;;;5.75;5.00;;;;;13.97;43.62;102278.72;5001099;28;45564;-59
2022/04/17 02:23:45;;;;;;;;;4.00;4.00;;;;;13.93;43.88;102269.22;5001168;28;45544;-59
2022/04/17 02:26:13;;;;;;;;;7.50;6.75;;;;;13.91;43.78;102265.78;5001240;28;45313;-59
2022/04/17 02:28:40;;;;;;;;;8.50;6.00;;;;;13.89;43.71;102272.06;5001453;28;45468;-59
2022/04/17 02:31:06;;;;;;;;;6.25;6.00;;;;;13.87;43.73;102266.84;5000631;28;45475;-60
2022/04/17 02:33:32;;;;;;;;;9.75;7.50;;;;;13.84;43.69;102255.56;5001153;28;45282;-59
2022/04/17 02:35:58;;;;;;;;;6.00;4.75;;;;;13.82;43.74;102262.72;4999999;28;45507;-59
2022/04/17 02:38:24;;;;;;;;;5.25;5.00;;;;;13.77;43.99;102256.78;5000926;28;45448;-59
2022/04/17 02:40:51;;;;;;;;;5.50;4.75;;;;;13.73;44.14;102257.88;5000901;28;46244;-59
2022/04/17 02:43:16;;;;;;;;;4.50;4.25;;;;;13.70;43.92;102256.22;5000962;28;45235;-59
2022/04/17 02:45:42;;;;;;;;;5.00;5.00;;;;;13.65;43.81;102255.59;5000864;28;45155;-59
2022/04/17 02:48:07;;;;;;;;;7.50;3.50;;;;;13.63;43.73;102246.84;5001023;28;45456;-59
2022/04/17 02:50:33;;;;;;;;;4.00;3.75;;;;;13.62;44.02;102255.75;4999377;28;46974;-59
2022/04/17 02:52:58;;;;;;;;;4.00;4.00;;;;;13.57;43.61;102253.31;5001031;28;45274;-59
2022/04/17 02:55:24;;;;;;;;;5.00;4.00;;;;;13.54;43.66;102248.16;5000700;28;45308;-59
2022/04/17 02:57:50;;;;;;;;;9.50;4.50;;;;;13.53;43.92;102248.25;5001361;28;45215;-59
2022/04/17 03:00:17;;;;;;;;;5.50;4.00;;;;;13.51;43.74;102247.44;4982683;28;46435;-59
2022/04/17 03:05:38;;;;;;;;;4.00;3.75;;;;;13.45;43.82;102235.38;5000878;28;45703;-59
2022/04/17 03:08:05;;;;;;;;;6.00;4.25;;;;;13.42;43.78;102232.84;5000551;28;45314;-59
2022/04/17 03:10:31;;;;;;;;;6.00;3.75;;;;;13.40;43.79;102237.38;5000559;28;45535;-59
2022/04/17 03:12:57;;;;;;;;;5.00;2.50;;;;;13.37;43.90;102241.03;5000776;28;45278;-60
2022/04/17 03:15:23;;;;;;;;;4.00;4.00;;;;;13.32;43.89;102236.88;5000658;28;45345;-60
2022/04/17 03:17:49;;;;;;;;;3.25;3.25;;;;;13.28;43.78;102240.59;5000668;28;45230;-59
2022/04/17 03:20:15;;;;;;;;;5.75;4.25;;;;;13.25;43.51;102236.28;5000418;28;45359;-59
2022/04/17 03:22:41;;;;;;;;;3.25;1.50;;;;;13.19;44.18;102236.53;5000450;28;45511;-59
2022/04/17 03:25:08;;;;;;;;;4.75;3.75;;;;;13.16;44.35;102234.03;5000556;28;45321;-59
2022/04/17 03:27:33;;;;;;;;;5.25;3.75;;;;;13.12;44.16;102235.13;5000639;28;45344;-59
2022/04/17 03:29:59;;;;;;;;;5.00;4.00;;;;;13.12;44.14;102229.84;5000255;28;45351;-59
2022/04/17 03:32:25;;;;;;;;;4.25;4.25;;;;;13.11;44.24;102233.38;5000222;28;45432;-59
2022/04/17 03:34:50;;;;;;;;;5.25;3.25;;;;;13.10;44.25;102223.72;5000582;28;45315;-59
2022/04/17 03:37:16;;;;;;;;;9.75;6.00;;;;;13.07;44.36;102221.25;5000474;28;45246;-59
2022/04/17 03:39:43;;;;;;;;;3.25;3.25;;;;;13.04;44.26;102227.53;4999981;28;45967;-59
2022/04/17 03:42:09;;;;;;;;;3.50;3.00;;;;;13.00;44.23;102231.25;4982495;28;45464;-59
2022/04/17 03:44:34;;;;;;;;;4.75;4.00;;;;;12.96;44.51;102227.03;5000417;28;45174;-60
2022/04/17 03:47:01;;;;;;;;;3.75;3.75;;;;;12.90;44.28;102221.16;5001195;28;45538;-59
2022/04/17 03:49:26;;;;;;;;;4.50;4.00;;;;;12.86;44.20;102228.34;5003399;28;45276;-59
2022/04/17 03:51:52;;;;;;;;;7.50;5.00;;;;;12.81;43.84;102222.44;5003460;28;45491;-59
2022/04/17 03:54:19;;;;;;;;;4.50;4.50;;;;;12.80;44.22;102215.44;5003450;28;45383;-59
2022/04/17 03:56:47;;;;;;;;;4.75;2.00;;;;;12.79;43.99;102213.69;5003527;28;46086;-59
2022/04/17 03:59:13;;;;;;;;;7.75;5.00;;;;;12.75;44.14;102217.41;5003433;28;46339;-59
2022/04/17 04:01:38;;;;;;;;;4.00;4.00;;;;;12.70;44.27;102214.09;5003248;28;45333;-59
2022/04/17 04:04:06;;;;;;;;;5.00;4.00;;;;;12.68;44.28;102211.53;5003555;28;45306;-59
2022/04/17 04:06:32;;;;;;;;;5.75;5.00;;;;;12.66;44.56;102220.47;5003285;28;45574;-60
2022/04/17 04:08:58;;;;;;;;;5.00;5.00;;;;;12.63;44.47;102213.50;5003098;28;45428;-59
2022/04/17 04:11:23;;;;;;;;;9.25;6.00;;;;;12.58;44.34;102216.38;5003031;28;45254;-60
2022/04/17 04:13:49;;;;;;;;;4.50;4.50;;;;;12.53;44.76;102215.72;5003644;28;45358;-59
2022/04/17 04:16:14;;;;;;;;;9.25;6.00;;;;;12.51;44.75;102212.28;5003116;28;45528;-59
2022/04/17 04:18:40;;;;;;;;;5.50;5.00;;;;;12.47;44.81;102205.41;5002831;28;45458;-60
2022/04/17 04:21:05;;;;;;;;;9.00;5.25;;;;;12.45;45.01;102212.53;5003060;28;45419;-59
2022/04/17 04:23:32;;;;;;;;;5.00;4.50;;;;;12.41;44.88;102213.63;5002952;28;45495;-59
2022/04/17 04:25:58;;;;;;;;;6.50;6.00;;;;;12.40;44.57;102208.38;5003174;28;45208;-59
2022/04/17 04:28:38;;;;;;;;;5.75;4.50;;;;;12.41;44.79;102208.34;5002858;28;45808;-59
2022/04/17 04:31:09;;;;;;;;;3.75;3.75;;;;;12.37;44.77;102203.22;5002603;28;45496;-59
2022/04/17 04:33:36;;;;;;;;;6.50;4.00;;;;;12.33;44.59;102206.94;5003100;28;45242;-59
2022/04/17 04:36:05;;;;;;;;;7.50;6.00;;;;;12.25;44.72;102208.13;5002831;28;45362;-59
2022/04/17 04:38:31;;;;;;;;;7.75;4.00;;;;;12.23;44.93;102212.59;5002422;28;45315;-59
2022/04/17 04:40:59;;;;;;;;;6.00;5.00;;;;;12.16;44.32;102202.34;5002585;28;45250;-60
2022/04/17 04:43:24;;;;;;;;;4.75;4.75;;;;;12.10;44.48;102205.28;5002849;28;45350;-59
2022/04/17 04:46:09;;;;;;;;;4.50;4.25;;;;;12.06;44.68;102211.59;5002510;28;45402;-59
2022/04/17 04:51:25;;;;;;;;;4.00;4.00;;;;;12.01;44.47;102217.94;5002661;28;45369;-59
2022/04/17 04:53:50;;;;;;;;;6.50;5.50;;;;;11.96;44.54;102212.00;5002369;28;45360;-59
2022/04/17 04:56:17;;;;;;;;;9.25;6.00;;;;;11.96;44.25;102212.00;5002669;28;45231;-60
2022/04/17 04:58:43;;;;;;;;;6.75;5.00;;;;;11.93;44.56;102208.63;5001085;28;45277;-59
2022/04/17 05:01:09;;;;;;;;;3.25;3.00;;;;;11.88;44.54;102216.72;5002691;28;45275;-59
2022/04/17 05:03:35;;;;;;;;;5.00;4.25;;;;;11.86;44.29;102220.38;5002380;28;45226;-59
2022/04/17 05:06:01;;;;;;;;;6.00;4.00;;;;;11.81;44.29;102214.41;5002557;28;45485;-59
2022/04/17 05:08:26;;;;;;;;;6.50;5.00;;;;;11.81;44.21;102220.53;5001788;28;46186;-59
2022/04/17 05:10:53;;;;;;;;;8.00;5.75;;;;;11.82;44.38;102213.47;5002485;28;45323;-59
2022/04/17 05:13:18;;;;;;;;;3.25;3.00;;;;;11.83;44.33;102221.31;5002306;28;45292;-59
2022/04/17 05:15:44;;;;;;;;;5.75;5.50;;;;;11.86;44.15;102220.38;5002181;28;45385;-59
2022/04/17 05:18:09;;;;;;;;;8.50;5.00;;;;;11.88;44.40;102219.38;5001725;28;46178;-59
2022/04/17 05:20:35;;;;;;;;;8.50;6.00;;;;;11.92;43.89;102220.09;5002133;28;45336;-59
2022/04/17 05:23:15;;;;;;;;;7.25;4.50;;;;;11.92;43.62;102226.22;5001777;28;45460;-59
2022/04/17 05:25:42;;;;;;;;;10.50;5.50;;;;;11.93;44.05;102233.25;5002281;28;46176;-59
2022/04/17 05:28:07;;;;;;;;;4.75;4.75;;;;;11.93;43.73;102230.63;5001811;28;45341;-59
2022/04/17 05:30:33;;;;;;;;;5.00;5.00;;;;;11.96;43.33;102233.13;5001594;28;45343;-59
2022/04/17 05:32:58;;;;;;;;;5.25;5.00;;;;;11.97;43.62;102228.69;5002325;28;45363;-59
2022/04/17 05:35:24;;;;;;;;;5.00;5.00;;;;;11.99;43.34;102235.63;5001898;28;45635;-59
2022/04/17 05:37:49;;;;;;;;;3.25;3.00;;;;;12.01;42.87;102230.31;5002064;28;45302;-59
2022/04/17 05:40:15;;;;;;;;;4.00;4.00;;;;;12.01;43.52;102231.16;5001528;28;45365;-59
2022/04/17 05:42:40;;;;;;;;;5.50;5.50;;;;;12.07;43.66;102230.03;5001915;28;45152;-59
2022/04/17 05:45:06;;;;;;;;;;;;;;;12.13;42.92;102228.91;5004353;28;45389;-59
2022/04/17 05:47:31;;;;;;;;;4.50;3.25;;;;;12.17;42.74;102225.22;5001967;28;46090;-59
2022/04/17 05:49:59;;;;;;;;;7.50;4.75;;;;;12.24;42.75;102226.66;5001552;28;45318;-59
2022/04/17 05:52:25;;;;;;;;;4.50;4.25;;;;;12.39;42.75;102228.66;5001721;28;45253;-59
2022/04/17 05:54:51;;;;;;;;;6.50;4.00;;;;;12.60;42.61;102231.31;5001617;28;45432;-58
2022/04/17 05:57:16;;;;;;;;;5.75;5.00;;;;;12.79;42.53;102224.25;5001581;28;46151;-59
2022/04/17 05:59:42;;;;;;;;;6.00;5.00;;;;;13.00;42.35;102233.03;5001474;28;45379;-59
2022/04/17 06:02:09;;;;;;;;;6.50;4.25;;;;;13.14;42.07;102228.81;5001686;28;45370;-59
2022/04/17 06:04:35;;;;;;;;;6.50;4.25;;;;;13.29;41.72;102237.03;5001425;28;45337;-59
2022/04/17 06:07:00;;;;;;;;;6.50;3.00;;;;;13.44;41.47;102233.66;5001462;28;45440;-59
2022/04/17 06:09:26;;;;;;;;;5.75;5.75;;;;;13.54;41.44;102228.78;5000638;28;45325;-59
2022/04/17 06:11:51;;;;;;;;;6.75;5.00;;;;;13.69;41.22;102233.34;5001600;28;45253;-59
2022/04/17 06:14:17;;;;;;;;;8.75;5.75;;;;;13.85;41.02;102241.38;5001261;28;45522;-59
2022/04/17 06:16:42;;;;;;;;;8.50;3.75;;;;;14.01;40.67;102237.03;5001279;28;45892;-59
2022/04/17 06:19:11;;;;;;;;;6.00;6.00;;;;;14.11;40.34;102230.34;5001471;28;45484;-59
2022/04/17 06:21:36;;;;;;;;;5.50;4.25;;;;;14.32;40.10;102239.00;5001639;28;45329;-59
2022/04/17 06:24:02;;;;;;;;;5.00;4.00;;;;;14.47;39.69;102243.56;5001143;28;45485;-58
2022/04/17 06:26:27;;;;;;;;;3.75;3.75;;;;;14.52;39.85;102233.56;5001249;28;45301;-59
2022/04/17 06:28:53;;;;;;;;;4.25;3.75;;;;;14.59;39.59;102241.19;5001116;28;45267;-59
2022/04/17 06:31:18;;;;;;;;;4.75;4.75;;;;;14.64;39.34;102234.72;5001054;28;45326;-59
2022/04/17 06:33:44;;;;;;;;;5.25;5.00;;;;;14.69;38.90;102235.34;5001402;28;45572;-59
2022/04/17 06:36:09;;;;;;;;;3.75;3.75;;;;;14.68;38.73;102233.63;5001042;28;45445;-59
2022/04/17 06:38:35;;;;;;;;;4.50;4.25;;;;;14.71;38.63;102236.13;5000906;28;45309;-60
2022/04/17 06:41:00;;;;;;;;;5.25;3.00;;;;;14.72;38.48;102234.31;5001150;28;45194;-58
2022/04/17 06:43:26;;;;;;;;;5.25;5.25;;;;;14.78;38.87;102228.72;5000998;28;45489;-59
2022/04/17 06:45:51;;;;;;;;;4.50;4.00;;;;;14.84;38.33;102228.34;5000878;28;45616;-59
2022/04/17 06:48:21;;;;;;;;;6.25;5.25;;;;;14.92;37.77;102230.59;5000829;28;45285;-59
2022/04/17 06:50:48;;;;;;;;;9.25;5.50;;;;;14.99;38.16;102231.97;5001207;28;45409;-59
2022/04/17 06:53:15;;;;;;;;;8.25;5.00;;;;;15.07;37.74;102227.13;5000858;28;45274;-59
2022/04/17 06:55:41;;;;;;;;;5.00;4.50;;;;;15.16;37.68;102226.59;5000855;28;46069;-59
2022/04/17 06:58:08;;;;;;;;;5.50;4.25;;;;;15.20;38.02;102222.88;5000625;28;45309;-59
2022/04/17 07:00:34;;;;;;;;;7.25;5.50;;;;;15.23;37.63;102222.69;5000784;28;45220;-59
2022/04/17 07:02:59;;;;;;;;;7.50;7.00;;;;;15.23;37.16;102221.81;5000894;28;45246;-59
2022/04/17 07:05:25;;;;;;;;;5.75;5.00;;;;;15.19;37.46;102213.19;5000782;28;45664;-58
2022/04/17 07:08:02;;;;;;;;;7.00;7.00;;;;;15.09;37.07;102209.34;5000824;28;45376;-59
2022/04/17 07:10:29;;;;;;;;;6.00;5.25;;;;;15.01;37.29;102204.44;5000730;28;45318;-59
2022/04/17 07:12:54;;;;;;;;;5.00;5.00;;;;;14.93;37.82;102204.00;5000653;28;45306;-58
2022/04/17 07:15:20;;;;;;;;;6.50;5.00;;;;;14.90;37.64;102198.00;5000451;28;45349;-59
2022/04/17 07:17:47;;;;;;;;;6.25;5.00;;;;;14.90;37.67;102198.84;5000523;28;45245;-58
2022/04/17 07:20:12;;;;;;;;;5.25;5.00;;;;;14.88;37.51;102194.56;5000557;28;45416;-58
2022/04/17 07:22:43;;;;;;;;;7.50;7.00;;;;;14.82;37.79;102201.06;5002397;28;45548;-59
2022/04/17 07:25:11;;;;;;;;;7.50;6.75;;;;;14.77;37.52;102190.72;5003805;28;46156;-58
2022/04/17 07:27:41;;;;;;;;;5.25;5.00;;;;;14.77;37.75;102198.66;5003496;28;45209;-58
2022/04/17 07:30:16;;;;;;;;;7.00;6.00;;;;;14.76;37.63;102183.66;5003772;28;45313;-58
2022/04/17 07:32:48;;;;;;;;;6.25;4.75;;;;;14.76;37.34;102188.13;5003547;28;45310;-59
2022/04/17 07:35:15;;;;;;;;;4.00;4.00;;;;;14.74;37.31;102188.19;5003501;28;46323;-58
2022/04/17 07:37:41;;;;;;;;;6.00;5.00;;;;;14.72;37.52;102178.63;5003380;28;45341;-59
2022/04/17 07:40:13;;;;;;;;;6.00;6.00;;;;;14.72;37.40;102183.94;5003681;28;45335;-59
2022/04/17 07:42:38;;;;;;;;;6.50;6.00;;;;;14.74;36.92;102184.69;5003748;28;45499;-59
2022/04/17 07:45:04;;;;;;;;;6.00;6.00;;;;;14.76;36.72;102177.50;5003546;28;46011;-59
2022/04/17 07:47:30;;;;;;;;;6.25;5.00;;;;;14.75;36.90;102181.09;5003579;28;45241;-59
2022/04/17 07:49:55;;;;;;;;;8.00;6.50;;;;;14.77;37.22;102180.09;5003567;28;45385;-59
2022/04/17 07:52:21;;;;;;;;;5.00;4.25;;;;;14.82;37.04;102174.53;5003641;28;45284;-58
2022/04/17 07:54:49;;;;;;;;;5.50;5.50;;;;;14.84;36.86;102169.13;5003160;28;45364;-58
2022/04/17 07:57:14;;;;;;;;;11.50;6.25;;;;;14.81;36.88;102167.50;5003316;28;45406;-58
2022/04/17 07:59:41;;;;;;;;;8.00;6.00;;;;;14.86;37.14;102175.25;5003518;28;45326;-58
2022/04/17 08:02:50;;;;;;;;;8.50;6.25;;;;;14.92;36.96;102164.25;5003474;28;45708;-58
2022/04/17 08:04:59;;;;;;;;;7.00;6.75;;;;;14.99;36.98;102166.50;4999841;28;45975;-58
2022/04/17 08:07:25;;;;;;;;;8.75;6.75;;;;;15.02;37.02;102166.34;5003302;28;45455;-58
2022/04/17 08:09:51;;;;;;;;;7.75;6.75;;;;;15.04;36.89;102163.59;5002753;28;45443;-58
2022/04/17 08:12:16;;;;;;;;;10.50;7.25;;;;;15.06;36.71;102157.25;5003442;28;45353;-59
2022/04/17 08:14:42;;;;;;;;;5.00;4.50;;;;;15.09;37.11;102153.59;5003178;28;46125;-58
2022/04/17 08:17:07;;;;;;;;;5.75;5.00;;;;;15.15;36.82;102150.59;5003482;28;45321;-58
2022/04/17 08:19:33;;;;;;;;;7.50;7.00;;;;;15.16;36.70;102149.63;5003228;28;45316;-58
2022/04/17 08:21:59;;;;;;;;;9.25;6.25;;;;;15.17;36.54;102137.25;4985645;28;45536;-58
2022/04/17 08:24:24;;;;;;;;;7.00;6.75;;;;;15.19;36.87;102145.97;5002753;28;46071;-58
2022/04/17 08:26:50;;;;;;;;;9.00;6.75;;;;;15.27;36.75;102141.94;5003064;28;45412;-58
2022/04/17 08:29:19;;;;;;;;;5.75;5.75;;;;;15.34;35.98;102139.81;5003016;28;45398;-58
2022/04/17 08:31:45;;;;;;;;;5.00;4.00;;;;;15.41;36.26;102130.53;5002762;28;45445;-58
2022/04/17 08:34:10;;;;;;;;;5.00;4.00;;;;;15.50;35.83;102139.78;5002715;28;45595;-58
2022/04/17 08:36:36;;;;;;;;;7.00;6.00;;;;;15.54;35.70;102130.66;5002995;28;45267;-58
2022/04/17 08:39:02;;;;;;;;;4.00;4.00;;;;;15.62;35.27;102141.75;5002367;28;45380;-58
2022/04/17 08:41:29;;;;;;;;;4.00;4.00;;;;;15.66;35.27;102130.00;5002968;28;45258;-58
2022/04/17 08:43:55;;;;;;;;;5.75;5.00;;;;;15.70;34.91;102122.69;5002328;28;45509;-58
2022/04/17 08:46:21;;;;;;;;;5.00;4.75;;;;;15.74;35.20;102134.88;5002574;28;45416;-58
2022/04/17 08:48:48;;;;;;;;;3.50;3.50;;;;;15.76;34.97;102128.50;5002475;28;45277;-59
2022/04/17 08:51:13;;;;;;;;;4.00;4.00;;;;;15.82;35.10;102125.50;5002778;28;45505;-59
2022/04/17 08:53:40;;;;;;;;;5.75;5.00;;;;;15.93;35.13;102124.00;5002238;28;45516;-59
2022/04/17 08:56:06;;;;;;;;;5.75;3.50;;;;;16.00;34.83;102122.69;5002514;28;45400;-58
2022/04/17 08:58:32;;;;;;;;;6.25;4.00;;;;;16.10;34.44;102115.88;5002185;28;45298;-58
2022/04/17 09:00:58;;;;;;;;;6.00;4.00;;;;;16.22;34.39;102122.25;5002481;28;45433;-58
2022/04/17 09:03:23;;;;;;;;;5.75;4.00;;;;;16.25;34.36;102124.72;5002021;28;46251;-59
2022/04/17 09:05:49;;;;;;;;;3.25;3.25;;;;;16.29;34.50;102121.78;5002236;28;45241;-58
2022/04/17 09:08:18;;;;;;;;;8.75;5.50;;;;;16.33;34.61;102115.31;5002091;28;45271;-59
2022/04/17 09:11:01;;;;;;;;;5.75;5.25;;;;;16.43;33.76;102110.28;5002306;28;45270;-59
2022/04/17 09:13:33;;;;;;;;;2.75;2.75;;;;;16.51;33.70;102112.47;5002055;28;45262;-58
2022/04/17 09:16:01;;;;;;;;;4.00;3.00;;;;;16.57;33.15;102106.75;5001844;28;45334;-58
2022/04/17 09:18:28;;;;;;;;;5.00;5.00;;;;;16.65;34.08;102109.78;5002207;28;45290;-59
2022/04/17 09:20:54;;;;;;;;;4.50;3.00;;;;;16.77;32.82;102111.72;5002072;28;45547;-58
2022/04/17 09:23:36;;;;;;;;;5.00;4.50;;;;;16.86;33.46;102111.13;5001600;28;45420;-58
2022/04/17 09:26:04;;;;;;;;;6.00;4.25;;;;;16.93;32.94;102107.13;5001950;28;45361;-58
2022/04/17 09:28:34;;;;;;;;;3.25;3.25;;;;;17.01;32.51;102090.66;5002121;28;45408;-58
2022/04/17 09:31:01;;;;;;;;;4.00;4.00;;;;;17.05;32.54;102088.66;5001409;28;45499;-58
2022/04/17 09:33:37;;;;;;;;;6.25;4.75;;;;;17.15;32.93;102093.28;5000554;28;45537;-58
2022/04/17 09:36:03;;;;;;;;;6.50;6.00;;;;;17.29;32.50;102087.03;5000488;28;45413;-59
2022/04/17 09:38:33;;;;;;;;;9.25;8.00;;;;;17.36;32.64;102088.34;5000569;28;45278;-58
2022/04/17 09:41:15;;;;;;;;;4.00;4.00;;;;;17.43;32.68;102091.47;5000565;28;45241;-58
2022/04/17 09:43:42;;;;;;;;;5.00;4.25;;;;;17.54;32.05;102089.81;5000362;28;46200;-58
2022/04/17 09:46:09;;;;;;;;;5.00;3.50;;;;;17.63;32.28;102080.34;4999867;28;45319;-58
2022/04/17 09:48:40;;;;;;;;;5.75;4.00;;;;;17.66;31.79;102076.59;4980887;28;45264;-58
2022/04/17 09:51:26;;;;;;;;;4.00;4.00;;;;;17.67;31.75;102079.16;5000634;28;45239;-58
2022/04/17 09:54:06;;;;;;;;;4.00;4.00;;;;;17.71;31.76;102078.03;4999858;28;45326;-58
2022/04/17 09:56:40;;;;;;;;;2.00;2.00;;;;;17.81;31.70;102067.59;5000080;28;45341;-58
2022/04/17 09:59:23;;;;;;;;;8.75;6.00;;;;;17.83;31.15;102058.53;5000124;28;45358;-58
2022/04/17 10:01:56;;;;;;;;;6.25;4.00;;;;;17.88;31.34;102060.88;4999855;28;45428;-59
2022/04/17 10:04:24;;;;;;;;;5.00;3.50;;;;;17.93;30.95;102052.56;4999796;28;46362;-59
2022/04/17 10:06:54;;;;;;;;;2.25;1.75;;;;;17.97;30.66;102054.91;4999828;28;45486;-59
2022/04/17 10:09:21;;;;;;;;;4.00;4.00;;;;;17.99;30.45;102055.66;4999987;28;45310;-59
2022/04/17 10:11:49;;;;;;;;;5.00;5.00;;;;;17.96;30.41;102053.22;4999873;28;45429;-58
2022/04/17 10:14:15;;;;;;;;;5.50;4.25;;;;;17.97;30.36;102044.25;4999776;28;45261;-59
2022/04/17 10:16:42;;;;;;;;;6.00;6.00;;;;;18.04;30.65;102037.53;4999537;28;45249;-58
2022/04/17 10:19:13;;;;;;;;;2.75;2.75;;;;;18.13;31.14;102036.88;5000137;28;45310;-58
2022/04/17 10:21:40;;;;;;;;;5.00;4.00;;;;;18.26;30.82;102036.03;4999950;28;45191;-58
2022/04/17 10:24:10;;;;;;;;;3.50;3.50;;;;;18.31;29.84;102033.88;4999444;28;45395;-58
2022/04/17 10:26:44;;;;;;;;;5.75;3.75;;;;;18.35;29.72;102030.03;5000096;28;45516;-58
2022/04/17 10:29:17;;;;;;;;;4.00;3.25;;;;;18.44;30.06;102023.19;4999752;28;45471;-59
2022/04/17 10:32:09;;;;;;;;;4.00;4.00;;;;;18.47;29.19;102018.47;4944184;28;1615733;-58
2022/04/17 10:35:02;;;;;;;;;3.00;3.00;;;;;18.51;29.38;102011.94;5000862;28;46365;-58
2022/04/17 10:38:00;;;;;;;;;4.00;3.00;;;;;18.56;29.16;102012.44;5001008;28;45345;-58
2022/04/17 10:40:27;;;;;;;;;4.75;3.75;;;;;18.64;28.83;102002.09;5000967;28;45345;-59
2022/04/17 10:43:03;;;;;;;;;4.00;4.00;;;;;18.68;28.86;102006.25;5001207;28;45391;-58
2022/04/17 10:45:31;;;;;;;;;4.00;4.00;;;;;18.75;28.79;101995.16;5000637;28;45360;-58
2022/04/17 10:48:05;;;;;;;;;2.00;2.00;;;;;18.82;28.68;101991.06;5001076;28;45270;-58
2022/04/17 10:50:44;;;;;;;;;3.75;3.75;;;;;18.90;28.99;101978.84;5000760;28;45264;-58
2022/04/17 10:53:31;;;;;;;;;4.00;3.00;;;;;18.98;28.70;101982.75;5000900;28;45333;-58
2022/04/17 10:56:07;;;;;;;;;2.25;2.00;;;;;19.01;28.60;101970.00;5000852;28;45309;-59
2022/04/17 10:58:44;;;;;;;;;3.00;2.00;;;;;19.08;28.36;101968.59;5004006;28;45326;-58
2022/04/17 11:01:11;;;;;;;;;6.25;3.00;;;;;19.15;28.48;101969.81;5004193;28;45277;-59
2022/04/17 11:03:38;;;;;;;;;11.75;3.00;;;;;19.22;28.02;101964.88;5004190;28;45262;-58
2022/04/17 11:06:30;;;;;;;;;6.00;4.25;;;;;19.27;27.54;101968.03;5004267;28;45294;-59
2022/04/17 11:09:14;;;;;;;;;2.00;2.00;;;;;19.31;27.80;101958.81;5004040;28;45244;-58
2022/04/17 11:11:41;;;;;;;;;4.00;3.00;;;;;19.41;28.15;101954.47;5003907;28;45345;-58
2022/04/17 11:14:13;;;;;;;;;3.50;3.50;;;;;19.50;27.87;101956.41;5004383;28;45631;-59
2022/04/17 11:16:48;;;;;;;;;4.00;4.00;;;;;19.58;28.67;101941.66;4984166;28;47966;-59
2022/04/17 11:19:15;;;;;;;;;2.25;2.25;;;;;19.65;28.27;101938.38;5003841;28;45393;-59
2022/04/17 11:21:44;;;;;;;;;4.25;3.00;;;;;19.70;27.59;101932.69;5004214;28;45239;-58
2022/04/17 11:24:10;;;;;;;;;5.00;5.00;;;;;19.75;27.49;101928.69;5003756;28;45360;-59
2022/04/17 11:26:54;;;;;;;;;3.75;3.75;;;;;19.87;27.04;101929.50;5004045;28;45458;-58
2022/04/17 11:29:40;;;;;;;;;5.25;3.00;;;;;19.97;27.13;101929.63;5003728;28;45262;-59
2022/04/17 11:32:17;;;;;;;;;3.75;3.75;;;;;20.06;27.02;101926.19;5003557;28;45337;-60
2022/04/17 11:34:47;;;;;;;;;3.75;2.75;;;;;20.12;26.50;101917.69;5004092;28;45345;-59
2022/04/17 11:37:16;;;;;;;;;5.00;4.00;;;;;20.19;26.85;101907.34;5003747;28;45238;-59